Hugo, OK (74743)

11:55 PM CDT on September 01, 2014 (GMT -0500)
Stamper Municipal | Change Station
CLOSE
Current Station
Airport
Location: Hugo,
Elevation: 571 ft
Nearby Weather Stations

Elev 571 ft 34.03 °N, 95.54 °W | Updated 20 minutes ago

Clear
Clear
81 °F
Feels Like 83 °F
N
6
Wind Variable Wind from SSE

Today
High -- | Low -- °F
--% Chance of Precip.
Yesterday
High -- | Low -- °F
Precip. -- in
6:55 AM 7:47 PM
Waxing Crescent, 47% visible
Pressure 29.91 in
Visibility 10.0 miles
Clouds Clear
Heat Index 83 °F
Dew Point 67 °F
Humidity 63%
Rainfall 0.00 in
Snow Depth Not available.
UV 0 out of 12
Pollen 11.20 out of 12
Air Quality Not available.
Flu Activity Not available.
METAR KHHW 020435Z AUTO 16005KT 10SM CLR 27/20 A2991 RMK AO2 T02720196

More Conditions Fewer Conditions

Pressure 29.91 in
Visibility 10.0 miles
Clouds Clear
Heat Index 83 °F
Dew Point 67 °F
Humidity 63%
Rainfall 0.00 in
Snow Depth Not available.
UV 0 out of 12
Pollen 11.20 out of 12
Air Quality Not available.
Flu Activity Not available.
METAR KHHW 020435Z AUTO 16005KT 10SM CLR 27/20 A2991 RMK AO2 T02720196

More Conditions Fewer Conditions

10-Day Weather Forecast

Almanac

Astronomy

Sep. 01, 2014 Rise Set
Actual Time 6:55 AM CDT 7:47 PM CDT
Civil Twilight 6:30 AM CDT 8:13 PM CDT
Nautical Twilight 5:59 AM CDT 8:43 PM CDT
Astronomical Twilight 5:28 AM CDT 9:14 PM CDT
Moon 1:24 PM CDT (9/1) No Moon Set
Length of Visible Light 13h 43m
Length of Day
12h 52m
Tomorrow will be 2m 1s shorter.
Waxing Crescent, 47% of the Moon is Illuminated
Sep 2
Waxing Crescent
Sep 2
First Quarter
Sep 8
Full
Sep 15
Last Quarter
Sep 24
New

Yesterday's Extremes

State Highs State Lows

Community

WunderPhotos

Upload Photos

1,749,573 photos uploaded!

WunderBlogs® & News

Nearby

Snow Depth

Station Depth Elevation
No new snow has been reported.

Earthquake Activity

City Distance Mag. Time & Date
Jones, Oklahoma 148 miles 3.1 1:49 PM CDT
2014-08-31
Minimum magnitude displayed is 2.5.

Coastal Water Temperatures

Place Temperature
No Stations Reporting

Nearby Weather Stations